sensor_id;sensor_type;location;lat;lon;timestamp;temperature;humidity
71084;DHT22;58741;52.672;13.548;2022-12-07T00:01:13;3.10;99.90
71084;DHT22;58741;52.672;13.548;2022-12-07T00:03:40;3.00;99.90
71084;DHT22;58741;52.672;13.548;2022-12-07T00:06:08;3.00;99.90
71084;DHT22;58741;52.672;13.548;2022-12-07T00:08:35;3.00;99.90
71084;DHT22;58741;52.672;13.548;2022-12-07T00:11:02;3.10;99.90
71084;DHT22;58741;52.672;13.548;2022-12-07T00:13:29;3.00;99.90
71084;DHT22;58741;52.672;13.548;2022-12-07T00:15:55;3.00;99.90
71084;DHT22;58741;52.672;13.548;2022-12-07T00:18:21;2.90;99.90
71084;DHT22;58741;52.672;13.548;2022-12-07T00:20:46;2.90;99.90
71084;DHT22;58741;52.672;13.548;2022-12-07T00:23:12;2.90;99.90
71084;DHT22;58741;52.672;13.548;2022-12-07T00:25:37;2.90;99.90
71084;DHT22;58741;52.672;13.548;2022-12-07T00:28:03;2.90;99.90
71084;DHT22;58741;52.672;13.548;2022-12-07T00:30:28;2.80;99.90
71084;DHT22;58741;52.672;13.548;2022-12-07T00:32:54;2.70;99.90
71084;DHT22;58741;52.672;13.548;2022-12-07T00:35:19;2.70;99.90
71084;DHT22;58741;52.672;13.548;2022-12-07T00:37:45;2.70;99.90
71084;DHT22;58741;52.672;13.548;2022-12-07T00:40:11;2.70;99.90
71084;DHT22;58741;52.672;13.548;2022-12-07T00:42:37;2.70;99.90
71084;DHT22;58741;52.672;13.548;2022-12-07T00:45:02;2.70;99.90
71084;DHT22;58741;52.672;13.548;2022-12-07T00:47:28;2.70;99.90
71084;DHT22;58741;52.672;13.548;2022-12-07T00:49:53;2.60;99.90
71084;DHT22;58741;52.672;13.548;2022-12-07T00:52:19;2.60;99.90
71084;DHT22;58741;52.672;13.548;2022-12-07T00:54:44;2.60;99.90
71084;DHT22;58741;52.672;13.548;2022-12-07T00:57:10;2.50;99.90
71084;DHT22;58741;52.672;13.548;2022-12-07T00:59:36;2.50;99.90
71084;DHT22;58741;52.672;13.548;2022-12-07T01:02:01;2.50;99.90
71084;DHT22;58741;52.672;13.548;2022-12-07T01:04:27;2.50;99.90
71084;DHT22;58741;52.672;13.548;2022-12-07T01:06:52;2.50;99.90
71084;DHT22;58741;52.672;13.548;2022-12-07T01:09:18;2.50;99.90
71084;DHT22;58741;52.672;13.548;2022-12-07T01:11:43;2.50;99.90
71084;DHT22;58741;52.672;13.548;2022-12-07T01:14:09;2.40;99.90
71084;DHT22;58741;52.672;13.548;2022-12-07T01:16:35;2.50;99.90
71084;DHT22;58741;52.672;13.548;2022-12-07T01:19:01;2.50;99.90
71084;DHT22;58741;52.672;13.548;2022-12-07T01:21:29;2.40;99.90
71084;DHT22;58741;52.672;13.548;2022-12-07T01:23:57;2.40;99.90
71084;DHT22;58741;52.672;13.548;2022-12-07T01:26:24;2.40;99.90
71084;DHT22;58741;52.672;13.548;2022-12-07T01:28:51;2.30;99.90
71084;DHT22;58741;52.672;13.548;2022-12-07T01:31:20;2.30;99.90
71084;DHT22;58741;52.672;13.548;2022-12-07T01:33:52;2.30;99.90
71084;DHT22;58741;52.672;13.548;2022-12-07T01:36:29;2.30;99.90
71084;DHT22;58741;52.672;13.548;2022-12-07T01:38:58;2.20;99.90
71084;DHT22;58741;52.672;13.548;2022-12-07T01:41:25;2.30;99.90
71084;DHT22;58741;52.672;13.548;2022-12-07T01:46:49;2.20;99.90
71084;DHT22;58741;52.672;13.548;2022-12-07T01:49:29;2.20;99.90
71084;DHT22;58741;52.672;13.548;2022-12-07T01:52:04;2.10;99.90
71084;DHT22;58741;52.672;13.548;2022-12-07T01:54:34;2.20;99.90
71084;DHT22;58741;52.672;13.548;2022-12-07T01:57:00;2.10;99.90
71084;DHT22;58741;52.672;13.548;2022-12-07T01:59:27;2.10;99.90
71084;DHT22;58741;52.672;13.548;2022-12-07T02:01:54;2.10;99.90
71084;DHT22;58741;52.672;13.548;2022-12-07T02:04:21;2.10;99.90
71084;DHT22;58741;52.672;13.548;2022-12-07T02:06:48;2.10;99.90
71084;DHT22;58741;52.672;13.548;2022-12-07T02:09:14;2.10;99.90
71084;DHT22;58741;52.672;13.548;2022-12-07T02:11:40;2.00;99.90
71084;DHT22;58741;52.672;13.548;2022-12-07T02:14:06;2.00;99.90
71084;DHT22;58741;52.672;13.548;2022-12-07T02:16:43;2.00;99.90
71084;DHT22;58741;52.672;13.548;2022-12-07T02:19:55;2.00;99.90
71084;DHT22;58741;52.672;13.548;2022-12-07T02:22:32;2.00;99.90
71084;DHT22;58741;52.672;13.548;2022-12-07T02:25:30;1.90;99.90
71084;DHT22;58741;52.672;13.548;2022-12-07T02:30:35;1.90;99.90
71084;DHT22;58741;52.672;13.548;2022-12-07T02:33:07;1.90;99.90
71084;DHT22;58741;52.672;13.548;2022-12-07T02:35:40;1.90;99.90
71084;DHT22;58741;52.672;13.548;2022-12-07T02:38:30;1.90;99.90
71084;DHT22;58741;52.672;13.548;2022-12-07T02:41:07;1.90;99.90
71084;DHT22;58741;52.672;13.548;2022-12-07T02:43:43;1.90;99.90
71084;DHT22;58741;52.672;13.548;2022-12-07T02:46:20;1.80;99.90
71084;DHT22;58741;52.672;13.548;2022-12-07T02:48:47;1.90;99.90
71084;DHT22;58741;52.672;13.548;2022-12-07T02:51:14;1.80;99.90
71084;DHT22;58741;52.672;13.548;2022-12-07T02:53:41;1.80;99.90
71084;DHT22;58741;52.672;13.548;2022-12-07T02:59:06;1.80;99.90
71084;DHT22;58741;52.672;13.548;2022-12-07T03:04:46;1.70;99.90
71084;DHT22;58741;52.672;13.548;2022-12-07T03:07:18;1.80;99.90
71084;DHT22;58741;52.672;13.548;2022-12-07T03:10:10;1.80;99.90
71084;DHT22;58741;52.672;13.548;2022-12-07T03:12:56;1.70;99.90
71084;DHT22;58741;52.672;13.548;2022-12-07T03:17:54;1.70;99.90
71084;DHT22;58741;52.672;13.548;2022-12-07T03:20:23;1.70;99.90
71084;DHT22;58741;52.672;13.548;2022-12-07T03:22:51;1.70;99.90
71084;DHT22;58741;52.672;13.548;2022-12-07T03:25:18;1.70;99.90
71084;DHT22;58741;52.672;13.548;2022-12-07T03:27:52;1.70;99.90
71084;DHT22;58741;52.672;13.548;2022-12-07T03:30:24;1.70;99.90
71084;DHT22;58741;52.672;13.548;2022-12-07T03:33:08;1.60;99.90
71084;DHT22;58741;52.672;13.548;2022-12-07T03:35:40;1.60;99.90
71084;DHT22;58741;52.672;13.548;2022-12-07T03:38:16;1.60;99.90
71084;DHT22;58741;52.672;13.548;2022-12-07T03:40:48;1.60;99.90
71084;DHT22;58741;52.672;13.548;2022-12-07T03:43:16;1.60;99.90
71084;DHT22;58741;52.672;13.548;2022-12-07T03:45:51;1.60;99.90
71084;DHT22;58741;52.672;13.548;2022-12-07T03:54:05;1.60;99.90
71084;DHT22;58741;52.672;13.548;2022-12-07T03:56:33;1.60;99.90
71084;DHT22;58741;52.672;13.548;2022-12-07T03:58:59;1.60;99.90
71084;DHT22;58741;52.672;13.548;2022-12-07T04:01:25;1.70;99.90
71084;DHT22;58741;52.672;13.548;2022-12-07T04:03:51;1.60;99.90
71084;DHT22;58741;52.672;13.548;2022-12-07T04:06:16;1.70;99.90
71084;DHT22;58741;52.672;13.548;2022-12-07T04:08:42;1.70;99.90
71084;DHT22;58741;52.672;13.548;2022-12-07T04:11:08;1.70;99.90
71084;DHT22;58741;52.672;13.548;2022-12-07T04:13:33;1.70;99.90
71084;DHT22;58741;52.672;13.548;2022-12-07T04:16:19;1.60;99.90
71084;DHT22;58741;52.672;13.548;2022-12-07T04:18:45;1.70;99.90
71084;DHT22;58741;52.672;13.548;2022-12-07T04:21:10;1.70;99.90
71084;DHT22;58741;52.672;13.548;2022-12-07T04:23:36;1.70;99.90
71084;DHT22;58741;52.672;13.548;2022-12-07T04:26:01;1.70;99.90
71084;DHT22;58741;52.672;13.548;2022-12-07T04:28:27;1.70;99.90
71084;DHT22;58741;52.672;13.548;2022-12-07T04:30:52;1.70;99.90
71084;DHT22;58741;52.672;13.548;2022-12-07T04:33:18;1.70;99.90
71084;DHT22;58741;52.672;13.548;2022-12-07T04:35:43;1.70;99.90
71084;DHT22;58741;52.672;13.548;2022-12-07T04:38:09;1.70;99.90
71084;DHT22;58741;52.672;13.548;2022-12-07T04:40:35;1.80;99.90
71084;DHT22;58741;52.672;13.548;2022-12-07T04:43:00;1.70;99.90
71084;DHT22;58741;52.672;13.548;2022-12-07T04:45:26;1.80;99.90
71084;DHT22;58741;52.672;13.548;2022-12-07T04:47:51;1.80;99.90
71084;DHT22;58741;52.672;13.548;2022-12-07T04:50:17;1.80;99.90
71084;DHT22;58741;52.672;13.548;2022-12-07T04:52:42;1.80;99.90
71084;DHT22;58741;52.672;13.548;2022-12-07T04:55:08;1.80;99.90
71084;DHT22;58741;52.672;13.548;2022-12-07T04:57:34;1.80;99.90
71084;DHT22;58741;52.672;13.548;2022-12-07T04:59:59;1.90;99.90
71084;DHT22;58741;52.672;13.548;2022-12-07T05:02:25;1.90;99.90
71084;DHT22;58741;52.672;13.548;2022-12-07T05:04:50;1.90;99.90
71084;DHT22;58741;52.672;13.548;2022-12-07T05:07:16;1.90;99.90
71084;DHT22;58741;52.672;13.548;2022-12-07T05:09:41;1.90;99.90
71084;DHT22;58741;52.672;13.548;2022-12-07T05:12:07;1.90;99.90
71084;DHT22;58741;52.672;13.548;2022-12-07T05:14:32;2.00;99.90
71084;DHT22;58741;52.672;13.548;2022-12-07T05:16:58;2.00;99.90
71084;DHT22;58741;52.672;13.548;2022-12-07T05:19:24;2.00;99.90
71084;DHT22;58741;52.672;13.548;2022-12-07T05:21:49;2.00;99.90
71084;DHT22;58741;52.672;13.548;2022-12-07T05:24:15;2.00;99.90
71084;DHT22;58741;52.672;13.548;2022-12-07T05:26:42;2.10;99.90
71084;DHT22;58741;52.672;13.548;2022-12-07T05:29:10;2.00;99.90
71084;DHT22;58741;52.672;13.548;2022-12-07T05:31:35;2.10;99.90
71084;DHT22;58741;52.672;13.548;2022-12-07T05:34:01;2.10;99.90
71084;DHT22;58741;52.672;13.548;2022-12-07T05:36:27;2.10;99.90
71084;DHT22;58741;52.672;13.548;2022-12-07T05:38:54;2.10;99.90
71084;DHT22;58741;52.672;13.548;2022-12-07T05:41:19;2.10;99.90
71084;DHT22;58741;52.672;13.548;2022-12-07T05:44:04;2.10;99.90
71084;DHT22;58741;52.672;13.548;2022-12-07T05:46:30;2.10;99.90
71084;DHT22;58741;52.672;13.548;2022-12-07T05:48:56;2.20;99.90
71084;DHT22;58741;52.672;13.548;2022-12-07T05:51:21;2.20;99.90
71084;DHT22;58741;52.672;13.548;2022-12-07T05:53:47;2.20;99.90
71084;DHT22;58741;52.672;13.548;2022-12-07T05:56:13;2.20;99.90
71084;DHT22;58741;52.672;13.548;2022-12-07T05:58:38;2.20;99.90
71084;DHT22;58741;52.672;13.548;2022-12-07T06:01:22;2.20;99.90
71084;DHT22;58741;52.672;13.548;2022-12-07T06:03:48;2.30;99.90
71084;DHT22;58741;52.672;13.548;2022-12-07T06:06:13;2.30;99.90
71084;DHT22;58741;52.672;13.548;2022-12-07T06:08:39;2.30;99.90
71084;DHT22;58741;52.672;13.548;2022-12-07T06:11:04;2.30;99.90
71084;DHT22;58741;52.672;13.548;2022-12-07T06:13:49;2.30;99.90
71084;DHT22;58741;52.672;13.548;2022-12-07T06:16:14;2.30;99.90
71084;DHT22;58741;52.672;13.548;2022-12-07T06:18:40;2.40;99.90
71084;DHT22;58741;52.672;13.548;2022-12-07T06:21:05;2.40;99.90
71084;DHT22;58741;52.672;13.548;2022-12-07T06:23:31;2.40;99.90
71084;DHT22;58741;52.672;13.548;2022-12-07T06:25:56;2.40;99.90
71084;DHT22;58741;52.672;13.548;2022-12-07T06:28:22;2.40;99.90
71084;DHT22;58741;52.672;13.548;2022-12-07T06:30:47;2.40;99.90
71084;DHT22;58741;52.672;13.548;2022-12-07T06:33:21;2.40;99.90
71084;DHT22;58741;52.672;13.548;2022-12-07T06:35:47;2.40;99.90
71084;DHT22;58741;52.672;13.548;2022-12-07T06:38:12;2.50;99.90
71084;DHT22;58741;52.672;13.548;2022-12-07T06:40:38;2.50;99.90
71084;DHT22;58741;52.672;13.548;2022-12-07T06:43:03;2.50;99.90
71084;DHT22;58741;52.672;13.548;2022-12-07T06:45:29;2.50;99.90
71084;DHT22;58741;52.672;13.548;2022-12-07T06:47:54;2.50;99.90
71084;DHT22;58741;52.672;13.548;2022-12-07T06:50:20;2.50;99.90
71084;DHT22;58741;52.672;13.548;2022-12-07T06:52:45;2.50;99.90
71084;DHT22;58741;52.672;13.548;2022-12-07T06:55:11;2.50;99.90
71084;DHT22;58741;52.672;13.548;2022-12-07T06:57:36;2.60;99.90
71084;DHT22;58741;52.672;13.548;2022-12-07T07:00:03;2.60;99.90
71084;DHT22;58741;52.672;13.548;2022-12-07T07:02:28;2.60;99.90
71084;DHT22;58741;52.672;13.548;2022-12-07T07:04:54;2.60;99.90
71084;DHT22;58741;52.672;13.548;2022-12-07T07:07:20;2.60;99.90
71084;DHT22;58741;52.672;13.548;2022-12-07T07:09:45;2.60;99.90
71084;DHT22;58741;52.672;13.548;2022-12-07T07:12:11;2.70;99.90
71084;DHT22;58741;52.672;13.548;2022-12-07T07:14:36;2.60;99.90
71084;DHT22;58741;52.672;13.548;2022-12-07T07:17:02;2.70;99.90
71084;DHT22;58741;52.672;13.548;2022-12-07T07:19:27;2.70;99.90
71084;DHT22;58741;52.672;13.548;2022-12-07T07:21:53;2.70;99.90
71084;DHT22;58741;52.672;13.548;2022-12-07T07:24:18;2.80;99.90
71084;DHT22;58741;52.672;13.548;2022-12-07T07:26:44;2.70;99.90
71084;DHT22;58741;52.672;13.548;2022-12-07T07:29:10;2.70;99.90
71084;DHT22;58741;52.672;13.548;2022-12-07T07:31:35;2.80;99.90
71084;DHT22;58741;52.672;13.548;2022-12-07T07:34:02;2.80;99.90
71084;DHT22;58741;52.672;13.548;2022-12-07T07:36:28;2.80;99.90
71084;DHT22;58741;52.672;13.548;2022-12-07T07:38:53;2.80;99.90
71084;DHT22;58741;52.672;13.548;2022-12-07T07:41:20;2.80;99.90
71084;DHT22;58741;52.672;13.548;2022-12-07T07:43:46;2.90;99.90
71084;DHT22;58741;52.672;13.548;2022-12-07T07:46:11;2.90;99.90
71084;DHT22;58741;52.672;13.548;2022-12-07T07:48:37;2.90;99.90
71084;DHT22;58741;52.672;13.548;2022-12-07T07:51:06;2.90;99.90
71084;DHT22;58741;52.672;13.548;2022-12-07T07:53:32;2.90;99.90
71084;DHT22;58741;52.672;13.548;2022-12-07T07:55:58;3.00;99.90
71084;DHT22;58741;52.672;13.548;2022-12-07T07:58:23;3.00;99.90
71084;DHT22;58741;52.672;13.548;2022-12-07T08:00:49;2.90;99.90
71084;DHT22;58741;52.672;13.548;2022-12-07T08:03:15;2.80;99.90
71084;DHT22;58741;52.672;13.548;2022-12-07T08:05:40;2.80;99.90
71084;DHT22;58741;52.672;13.548;2022-12-07T08:08:06;2.70;99.90
71084;DHT22;58741;52.672;13.548;2022-12-07T08:10:32;2.60;99.90
71084;DHT22;58741;52.672;13.548;2022-12-07T08:12:58;2.50;99.90
71084;DHT22;58741;52.672;13.548;2022-12-07T08:15:45;2.50;99.90
71084;DHT22;58741;52.672;13.548;2022-12-07T08:18:11;2.50;99.90
71084;DHT22;58741;52.672;13.548;2022-12-07T08:20:38;2.40;99.90
71084;DHT22;58741;52.672;13.548;2022-12-07T08:23:04;2.40;99.90
71084;DHT22;58741;52.672;13.548;2022-12-07T08:25:30;2.40;99.90
71084;DHT22;58741;52.672;13.548;2022-12-07T08:27:56;2.50;99.90
71084;DHT22;58741;52.672;13.548;2022-12-07T08:30:22;2.50;99.90
71084;DHT22;58741;52.672;13.548;2022-12-07T08:32:48;2.50;99.90
71084;DHT22;58741;52.672;13.548;2022-12-07T08:35:14;2.50;99.90
71084;DHT22;58741;52.672;13.548;2022-12-07T08:37:40;2.50;99.90
71084;DHT22;58741;52.672;13.548;2022-12-07T08:40:07;2.60;99.90
71084;DHT22;58741;52.672;13.548;2022-12-07T08:42:34;2.60;99.90
71084;DHT22;58741;52.672;13.548;2022-12-07T08:45:13;2.60;99.90
71084;DHT22;58741;52.672;13.548;2022-12-07T08:47:44;2.70;99.90
71084;DHT22;58741;52.672;13.548;2022-12-07T08:50:11;2.80;99.90
71084;DHT22;58741;52.672;13.548;2022-12-07T08:52:38;2.80;99.90
71084;DHT22;58741;52.672;13.548;2022-12-07T08:55:05;2.80;99.90
71084;DHT22;58741;52.672;13.548;2022-12-07T08:57:32;2.90;99.90
71084;DHT22;58741;52.672;13.548;2022-12-07T08:59:58;2.90;99.90
71084;DHT22;58741;52.672;13.548;2022-12-07T09:02:24;2.90;99.90
71084;DHT22;58741;52.672;13.548;2022-12-07T09:04:50;2.90;99.90
71084;DHT22;58741;52.672;13.548;2022-12-07T09:07:15;3.00;99.90
71084;DHT22;58741;52.672;13.548;2022-12-07T09:09:41;3.00;99.90
71084;DHT22;58741;52.672;13.548;2022-12-07T09:12:07;3.00;99.90
71084;DHT22;58741;52.672;13.548;2022-12-07T09:14:32;3.00;99.90
71084;DHT22;58741;52.672;13.548;2022-12-07T09:17:09;3.00;99.90
71084;DHT22;58741;52.672;13.548;2022-12-07T09:19:35;3.00;99.90
71084;DHT22;58741;52.672;13.548;2022-12-07T09:22:02;3.00;99.90
71084;DHT22;58741;52.672;13.548;2022-12-07T09:24:28;3.10;99.90
71084;DHT22;58741;52.672;13.548;2022-12-07T09:26:53;3.00;99.90
71084;DHT22;58741;52.672;13.548;2022-12-07T09:29:19;3.10;99.90
71084;DHT22;58741;52.672;13.548;2022-12-07T09:31:44;3.10;99.90
71084;DHT22;58741;52.672;13.548;2022-12-07T09:34:10;3.00;99.90
71084;DHT22;58741;52.672;13.548;2022-12-07T09:36:36;3.00;99.90
71084;DHT22;58741;52.672;13.548;2022-12-07T09:39:02;3.10;99.90
71084;DHT22;58741;52.672;13.548;2022-12-07T09:41:30;3.00;99.90
71084;DHT22;58741;52.672;13.548;2022-12-07T09:44:04;3.00;99.90
71084;DHT22;58741;52.672;13.548;2022-12-07T09:46:35;3.00;99.90
71084;DHT22;58741;52.672;13.548;2022-12-07T09:49:02;3.00;99.90
71084;DHT22;58741;52.672;13.548;2022-12-07T09:51:27;3.00;99.90
71084;DHT22;58741;52.672;13.548;2022-12-07T09:53:55;3.00;99.90
71084;DHT22;58741;52.672;13.548;2022-12-07T09:56:23;3.00;99.90
71084;DHT22;58741;52.672;13.548;2022-12-07T09:58:49;3.00;99.90
71084;DHT22;58741;52.672;13.548;2022-12-07T10:01:18;3.00;99.90
71084;DHT22;58741;52.672;13.548;2022-12-07T10:03:59;3.10;99.90
71084;DHT22;58741;52.672;13.548;2022-12-07T10:06:25;3.00;99.90
71084;DHT22;58741;52.672;13.548;2022-12-07T10:08:51;3.00;99.90
71084;DHT22;58741;52.672;13.548;2022-12-07T10:11:17;3.00;99.90
71084;DHT22;58741;52.672;13.548;2022-12-07T10:13:44;3.00;99.90
71084;DHT22;58741;52.672;13.548;2022-12-07T10:18:50;3.00;99.90
71084;DHT22;58741;52.672;13.548;2022-12-07T10:21:24;3.00;99.90
71084;DHT22;58741;52.672;13.548;2022-12-07T10:24:04;3.00;99.90
71084;DHT22;58741;52.672;13.548;2022-12-07T10:31:40;3.00;99.90
71084;DHT22;58741;52.672;13.548;2022-12-07T10:34:26;3.00;99.90
71084;DHT22;58741;52.672;13.548;2022-12-07T10:37:12;3.00;99.90
71084;DHT22;58741;52.672;13.548;2022-12-07T10:39:45;3.00;99.90
71084;DHT22;58741;52.672;13.548;2022-12-07T10:42:23;3.20;99.90
71084;DHT22;58741;52.672;13.548;2022-12-07T10:45:06;3.40;99.90
71084;DHT22;58741;52.672;13.548;2022-12-07T10:47:55;3.50;99.90
71084;DHT22;58741;52.672;13.548;2022-12-07T10:53:35;3.70;99.90
71084;DHT22;58741;52.672;13.548;2022-12-07T11:04:35;3.90;99.90
71084;DHT22;58741;52.672;13.548;2022-12-07T11:07:27;3.90;99.90
71084;DHT22;58741;52.672;13.548;2022-12-07T11:10:07;3.90;99.90
71084;DHT22;58741;52.672;13.548;2022-12-07T11:12:59;3.80;99.90
71084;DHT22;58741;52.672;13.548;2022-12-07T11:21:32;3.50;99.80
71084;DHT22;58741;52.672;13.548;2022-12-07T11:24:10;3.50;99.90
71084;DHT22;58741;52.672;13.548;2022-12-07T11:35:09;3.50;99.90
71084;DHT22;58741;52.672;13.548;2022-12-07T11:37:38;3.50;99.90
71084;DHT22;58741;52.672;13.548;2022-12-07T11:40:24;3.50;99.90
71084;DHT22;58741;52.672;13.548;2022-12-07T11:43:18;3.50;99.90
71084;DHT22;58741;52.672;13.548;2022-12-07T11:45:51;3.40;99.90
71084;DHT22;58741;52.672;13.548;2022-12-07T11:50:55;3.30;99.90
71084;DHT22;58741;52.672;13.548;2022-12-07T11:53:41;3.30;99.90
71084;DHT22;58741;52.672;13.548;2022-12-07T12:01:48;3.30;99.90
71084;DHT22;58741;52.672;13.548;2022-12-07T12:06:49;3.40;99.90
71084;DHT22;58741;52.672;13.548;2022-12-07T12:20:21;3.50;99.90
71084;DHT22;58741;52.672;13.548;2022-12-07T12:25:29;3.50;99.90
71084;DHT22;58741;52.672;13.548;2022-12-07T12:27:58;3.50;99.90
71084;DHT22;58741;52.672;13.548;2022-12-07T12:30:38;3.50;99.90
71084;DHT22;58741;52.672;13.548;2022-12-07T12:33:13;3.50;99.90
71084;DHT22;58741;52.672;13.548;2022-12-07T12:35:40;3.60;99.90
71084;DHT22;58741;52.672;13.548;2022-12-07T12:38:29;3.60;99.90
71084;DHT22;58741;52.672;13.548;2022-12-07T12:40:56;3.60;99.90
71084;DHT22;58741;52.672;13.548;2022-12-07T12:43:44;3.70;99.90
71084;DHT22;58741;52.672;13.548;2022-12-07T12:51:53;3.70;99.90
71084;DHT22;58741;52.672;13.548;2022-12-07T12:54:29;3.70;99.90
71084;DHT22;58741;52.672;13.548;2022-12-07T12:57:09;3.70;99.90
71084;DHT22;58741;52.672;13.548;2022-12-07T12:59:56;3.70;99.90
71084;DHT22;58741;52.672;13.548;2022-12-07T13:02:27;3.70;99.90
71084;DHT22;58741;52.672;13.548;2022-12-07T13:05:19;3.70;99.90
71084;DHT22;58741;52.672;13.548;2022-12-07T13:15:51;3.70;99.90
71084;DHT22;58741;52.672;13.548;2022-12-07T13:20:59;3.70;99.90
71084;DHT22;58741;52.672;13.548;2022-12-07T13:28:49;3.70;99.90
71084;DHT22;58741;52.672;13.548;2022-12-07T13:31:30;3.60;99.90
71084;DHT22;58741;52.672;13.548;2022-12-07T13:33:57;3.70;99.90
71084;DHT22;58741;52.672;13.548;2022-12-07T13:36:29;3.60;99.90
71084;DHT22;58741;52.672;13.548;2022-12-07T13:39:15;3.60;99.90
71084;DHT22;58741;52.672;13.548;2022-12-07T13:41:43;3.70;99.90
71084;DHT22;58741;52.672;13.548;2022-12-07T13:44:15;3.70;99.90
71084;DHT22;58741;52.672;13.548;2022-12-07T13:46:47;3.60;99.90
71084;DHT22;58741;52.672;13.548;2022-12-07T13:49:29;3.60;99.90
71084;DHT22;58741;52.672;13.548;2022-12-07T13:52:13;3.60;99.90
71084;DHT22;58741;52.672;13.548;2022-12-07T13:54:46;3.60;99.90
71084;DHT22;58741;52.672;13.548;2022-12-07T13:57:14;3.60;99.90
71084;DHT22;58741;52.672;13.548;2022-12-07T13:59:40;3.60;99.90
71084;DHT22;58741;52.672;13.548;2022-12-07T14:02:26;3.60;99.90
71084;DHT22;58741;52.672;13.548;2022-12-07T14:05:05;3.60;99.90
71084;DHT22;58741;52.672;13.548;2022-12-07T14:07:32;3.60;99.90
71084;DHT22;58741;52.672;13.548;2022-12-07T14:10:05;3.60;99.90
71084;DHT22;58741;52.672;13.548;2022-12-07T14:12:32;3.50;99.90
71084;DHT22;58741;52.672;13.548;2022-12-07T14:15:02;3.50;99.90
71084;DHT22;58741;52.672;13.548;2022-12-07T14:17:28;3.50;99.90
71084;DHT22;58741;52.672;13.548;2022-12-07T14:20:01;3.50;99.90
71084;DHT22;58741;52.672;13.548;2022-12-07T14:22:36;3.50;99.90
71084;DHT22;58741;52.672;13.548;2022-12-07T14:25:15;3.40;99.90
71084;DHT22;58741;52.672;13.548;2022-12-07T14:27:59;3.40;99.90
71084;DHT22;58741;52.672;13.548;2022-12-07T14:30:30;3.40;99.90
71084;DHT22;58741;52.672;13.548;2022-12-07T14:33:00;3.40;99.90
71084;DHT22;58741;52.672;13.548;2022-12-07T14:35:27;3.40;99.90
71084;DHT22;58741;52.672;13.548;2022-12-07T14:37:53;3.30;99.90
71084;DHT22;58741;52.672;13.548;2022-12-07T14:40:21;3.30;99.90
71084;DHT22;58741;52.672;13.548;2022-12-07T14:42:50;3.30;99.90
71084;DHT22;58741;52.672;13.548;2022-12-07T14:45:20;3.20;99.90
71084;DHT22;58741;52.672;13.548;2022-12-07T14:47:46;3.20;99.90
71084;DHT22;58741;52.672;13.548;2022-12-07T14:50:13;3.20;99.90
71084;DHT22;58741;52.672;13.548;2022-12-07T14:52:40;3.20;99.90
71084;DHT22;58741;52.672;13.548;2022-12-07T14:55:20;3.10;99.90
71084;DHT22;58741;52.672;13.548;2022-12-07T14:57:46;3.10;99.90
71084;DHT22;58741;52.672;13.548;2022-12-07T15:00:16;3.00;99.90
71084;DHT22;58741;52.672;13.548;2022-12-07T15:02:43;3.00;99.90
71084;DHT22;58741;52.672;13.548;2022-12-07T15:05:09;3.00;99.90
71084;DHT22;58741;52.672;13.548;2022-12-07T15:07:35;3.00;99.90
71084;DHT22;58741;52.672;13.548;2022-12-07T15:10:00;2.90;99.90
71084;DHT22;58741;52.672;13.548;2022-12-07T15:12:26;2.90;99.90
71084;DHT22;58741;52.672;13.548;2022-12-07T15:14:52;2.90;99.90
71084;DHT22;58741;52.672;13.548;2022-12-07T15:17:18;2.90;99.90
71084;DHT22;58741;52.672;13.548;2022-12-07T15:19:43;2.80;99.90
71084;DHT22;58741;52.672;13.548;2022-12-07T15:22:09;2.80;99.90
71084;DHT22;58741;52.672;13.548;2022-12-07T15:24:36;2.80;99.90
71084;DHT22;58741;52.672;13.548;2022-12-07T15:27:02;2.70;99.90
71084;DHT22;58741;52.672;13.548;2022-12-07T15:29:28;2.70;99.90
71084;DHT22;58741;52.672;13.548;2022-12-07T15:31:54;2.70;99.90
71084;DHT22;58741;52.672;13.548;2022-12-07T15:34:20;2.70;99.90
71084;DHT22;58741;52.672;13.548;2022-12-07T15:36:46;2.60;99.90
71084;DHT22;58741;52.672;13.548;2022-12-07T15:39:11;2.60;99.90
71084;DHT22;58741;52.672;13.548;2022-12-07T15:41:37;2.60;99.90
71084;DHT22;58741;52.672;13.548;2022-12-07T15:44:03;2.60;99.90
71084;DHT22;58741;52.672;13.548;2022-12-07T15:46:47;2.60;99.90
71084;DHT22;58741;52.672;13.548;2022-12-07T15:49:15;2.60;99.90
71084;DHT22;58741;52.672;13.548;2022-12-07T15:51:42;2.60;99.90
71084;DHT22;58741;52.672;13.548;2022-12-07T15:54:28;2.60;99.90
71084;DHT22;58741;52.672;13.548;2022-12-07T15:56:55;2.50;99.90
71084;DHT22;58741;52.672;13.548;2022-12-07T15:59:21;2.40;99.90
71084;DHT22;58741;52.672;13.548;2022-12-07T16:01:47;2.30;99.90
71084;DHT22;58741;52.672;13.548;2022-12-07T16:04:13;2.30;99.90
71084;DHT22;58741;52.672;13.548;2022-12-07T16:06:39;2.20;99.90
71084;DHT22;58741;52.672;13.548;2022-12-07T16:09:05;2.10;99.90
71084;DHT22;58741;52.672;13.548;2022-12-07T16:11:31;2.00;99.90
71084;DHT22;58741;52.672;13.548;2022-12-07T16:13:57;1.90;99.90
71084;DHT22;58741;52.672;13.548;2022-12-07T16:16:23;1.90;99.90
71084;DHT22;58741;52.672;13.548;2022-12-07T16:18:49;1.90;99.90
71084;DHT22;58741;52.672;13.548;2022-12-07T16:21:16;1.80;99.90
71084;DHT22;58741;52.672;13.548;2022-12-07T16:23:41;1.80;99.90
71084;DHT22;58741;52.672;13.548;2022-12-07T16:26:10;1.80;99.90
71084;DHT22;58741;52.672;13.548;2022-12-07T16:28:36;1.80;99.90
71084;DHT22;58741;52.672;13.548;2022-12-07T16:31:04;1.70;99.90
71084;DHT22;58741;52.672;13.548;2022-12-07T16:33:29;1.70;99.90
71084;DHT22;58741;52.672;13.548;2022-12-07T16:35:55;1.70;99.90
71084;DHT22;58741;52.672;13.548;2022-12-07T16:38:21;1.70;99.90
71084;DHT22;58741;52.672;13.548;2022-12-07T16:40:47;1.70;99.90
71084;DHT22;58741;52.672;13.548;2022-12-07T16:43:13;1.60;99.90
71084;DHT22;58741;52.672;13.548;2022-12-07T16:45:39;1.60;99.90
71084;DHT22;58741;52.672;13.548;2022-12-07T16:48:04;1.60;99.90
71084;DHT22;58741;52.672;13.548;2022-12-07T16:50:30;1.60;99.90
71084;DHT22;58741;52.672;13.548;2022-12-07T16:52:56;1.60;99.90
71084;DHT22;58741;52.672;13.548;2022-12-07T16:55:21;1.60;99.90
71084;DHT22;58741;52.672;13.548;2022-12-07T16:57:47;1.50;99.90
71084;DHT22;58741;52.672;13.548;2022-12-07T17:00:12;1.50;99.90
71084;DHT22;58741;52.672;13.548;2022-12-07T17:02:38;1.50;99.90
71084;DHT22;58741;52.672;13.548;2022-12-07T17:05:04;1.50;99.90
71084;DHT22;58741;52.672;13.548;2022-12-07T17:07:29;1.50;99.90
71084;DHT22;58741;52.672;13.548;2022-12-07T17:09:55;1.40;99.90
71084;DHT22;58741;52.672;13.548;2022-12-07T17:12:20;1.40;99.90
71084;DHT22;58741;52.672;13.548;2022-12-07T17:14:46;1.40;99.90
71084;DHT22;58741;52.672;13.548;2022-12-07T17:17:30;1.40;99.90
71084;DHT22;58741;52.672;13.548;2022-12-07T17:19:56;1.40;99.90
71084;DHT22;58741;52.672;13.548;2022-12-07T17:22:21;1.40;99.90